Airfield :
LOGIN :

Register | Disclaimer

   EN    FR    IT 

 










Legend :    VFR   Marginal VFR   IFR   Intensive IFR   Very Intensive IFR
Visi :
Ceiling :
>= 8 km
>= 3000ft
5 to 8 km
1000 to 3000 ft
1500m to 5 km
500 to 1000 ft
800 to 1500m
200 to 500 ft
< 800m
< 200 ft
Symbols :   Thunderstorms  Fog  Heavy snow  Heavy precipitations  Wind > 20 kt
SIGMETs :     Misc.  Thunderstorms  Icing  Turbulence  Mountain Waves  Volcanic Ashes







- Airport Elevation : 463 ft
- IATA code : QAS


DAOI - Chlef Int.

CURRENT METAR :
  • 220300Z 00000KT 9999 FEW026 16/07 Q1015

EXPIRED METARs :
  • 220200Z 00000KT 9999 FEW026 17/07 Q1015
  • 220100Z 00000KT 9999 FEW026 17/06 Q1015

TAF TAF DAOI
Valid from the 22 at 00:00 until the 23 at 00:00 UTC


212300Z 2200/2224 VRB02KT 9999 FEW026
BECMG 2212/2214 34010KT CAVOK
No reported NOTAMs for that airfield.
2 SIGMETs reported for the Alger FIR (DAAA) :
 
Embedded thunderstorms
DAAA SIGMET 12 VALID 220300/220500 DAMM
DAAA ALGER FIR EMBD TS OBS WI N3625 E00555 - N3446 E00548 - N3343 E00525 - N3348 E00408 - N3521 E00442 - N3626 E00440 - N3625 E00555 TOP FL400 MOV NE NC=
Embedded thunderstorms
COR DAAA SIGMET 1 VALID 220300/220500 DAMM
DAAA ALGER FIR EMBD TS OBS WI N3625 E00555 - N3446 E00548 - N3343 E00525 - N3348 E00408 - N3521 E00442 - N3626 E00440 - N3625 E00555 TOP FL400 MOV NE NC=



MET'MAP, your aeronautical weather chart ! - Copyright ORBIFLY December 2007 - Disclaimer

ORBIFLY MET'MAP TEAM :

Programming & Development : Alexandra Zaïnal
Concept & Development : Baudouin d'Aumeries
Co-Development & Prog : Marc-Olivier Méhu
Technical & hardware support : Manuel Goepfert

Contact : metmap@orbifly.com




SOURCES & CREDITS :

   NOAA